createdAt,value
2022-12-13T00:00:29.456Z,20.40
2022-12-13T00:01:29.460Z,20.39
2022-12-13T00:02:29.451Z,20.38
2022-12-13T00:03:29.429Z,20.37
2022-12-13T00:04:29.455Z,20.38
2022-12-13T00:05:29.363Z,20.38
2022-12-13T00:06:29.321Z,20.38
2022-12-13T00:07:29.363Z,20.39
2022-12-13T00:08:29.336Z,20.38
2022-12-13T00:09:29.358Z,20.37
2022-12-13T00:10:29.259Z,20.38
2022-12-13T00:11:29.273Z,20.36
2022-12-13T00:12:29.233Z,20.36
2022-12-13T00:13:29.225Z,20.34
2022-12-13T00:14:29.168Z,20.35
2022-12-13T00:15:29.215Z,20.33
2022-12-13T00:16:29.177Z,20.32
2022-12-13T00:17:29.163Z,20.31
2022-12-13T00:18:29.104Z,20.31
2022-12-13T00:19:29.141Z,20.32
2022-12-13T00:20:29.069Z,20.31
2022-12-13T00:21:29.074Z,20.29
2022-12-13T00:22:29.016Z,20.28
2022-12-13T00:23:29.223Z,20.29
2022-12-13T00:24:28.999Z,20.29
2022-12-13T00:25:29.001Z,20.29
2022-12-13T00:26:28.959Z,20.27
2022-12-13T00:27:28.987Z,20.27
2022-12-13T00:28:28.920Z,20.27
2022-12-13T00:29:28.962Z,20.27
2022-12-13T00:30:28.965Z,20.26
2022-12-13T00:32:29.877Z,20.26
2022-12-13T00:33:28.842Z,20.26
2022-12-13T00:34:28.851Z,20.25
2022-12-13T00:35:28.814Z,20.25
2022-12-13T00:36:28.811Z,20.26
2022-12-13T00:37:28.771Z,20.25
2022-12-13T00:38:28.761Z,20.24
2022-12-13T00:39:28.735Z,20.24
2022-12-13T00:40:28.726Z,20.23
2022-12-13T00:41:28.707Z,20.23
2022-12-13T00:42:28.691Z,20.22
2022-12-13T00:43:35.721Z,20.22
2022-12-13T00:44:28.648Z,20.21
2022-12-13T00:45:28.684Z,20.21
2022-12-13T00:46:28.687Z,20.21
2022-12-13T00:47:28.636Z,20.21
2022-12-13T00:48:28.611Z,20.21
2022-12-13T00:49:28.646Z,20.20
2022-12-13T00:50:28.569Z,20.21
2022-12-13T00:51:28.599Z,20.20
2022-12-13T00:52:28.539Z,20.21
2022-12-13T00:53:28.544Z,20.19
2022-12-13T00:54:28.462Z,20.20
2022-12-13T00:55:28.513Z,20.19
2022-12-13T00:56:28.462Z,20.19
2022-12-13T00:57:28.443Z,20.19
2022-12-13T00:58:28.610Z,20.18
2022-12-13T00:59:28.401Z,20.18
2022-12-13T01:00:28.363Z,20.18
2022-12-13T01:01:28.450Z,20.17
2022-12-13T01:02:28.336Z,20.17
2022-12-13T01:03:28.394Z,20.16
2022-12-13T01:04:28.308Z,20.16
2022-12-13T01:06:12.597Z,20.16
2022-12-13T01:06:29.295Z,20.14
2022-12-13T01:07:28.230Z,20.15
2022-12-13T01:08:28.236Z,20.14
2022-12-13T01:09:28.193Z,20.14
2022-12-13T01:10:28.209Z,20.14
2022-12-13T01:11:28.112Z,20.13
2022-12-13T01:12:28.133Z,20.13
2022-12-13T01:13:28.084Z,20.12
2022-12-13T01:14:28.117Z,20.12
2022-12-13T01:15:28.030Z,20.13
2022-12-13T01:16:28.108Z,20.13
2022-12-13T01:17:28.017Z,20.12
2022-12-13T01:18:28.002Z,20.12
2022-12-13T01:19:27.937Z,20.12
2022-12-13T01:20:27.973Z,20.12
2022-12-13T01:21:27.910Z,20.11
2022-12-13T01:22:27.953Z,20.11
2022-12-13T01:23:27.862Z,20.10
2022-12-13T01:24:27.891Z,20.10
2022-12-13T01:25:27.843Z,20.10
2022-12-13T01:26:27.854Z,20.10
2022-12-13T01:27:27.764Z,20.09
2022-12-13T01:28:27.797Z,20.08
2022-12-13T01:29:27.750Z,20.08
2022-12-13T01:30:27.747Z,20.08
2022-12-13T01:31:27.707Z,20.07
2022-12-13T01:32:27.718Z,20.07
2022-12-13T01:33:27.638Z,20.07
2022-12-13T01:34:27.649Z,20.06
2022-12-13T01:35:27.590Z,20.06
2022-12-13T01:36:28.525Z,20.06
2022-12-13T01:37:27.548Z,20.06
2022-12-13T01:38:27.584Z,20.05
2022-12-13T01:39:27.589Z,20.05
2022-12-13T01:40:27.556Z,20.05
2022-12-13T01:41:27.756Z,20.04
2022-12-13T01:42:27.513Z,20.05
2022-12-13T01:43:27.471Z,20.05
2022-12-13T01:44:27.464Z,20.03
2022-12-13T01:45:27.407Z,20.02
2022-12-13T01:46:27.476Z,20.03
2022-12-13T01:47:27.393Z,20.02
2022-12-13T01:48:27.412Z,20.02
2022-12-13T01:49:27.345Z,20.02
2022-12-13T01:50:27.345Z,20.02
2022-12-13T01:51:27.328Z,20.00
2022-12-13T01:52:27.328Z,20.00
2022-12-13T01:53:27.289Z,20.00
2022-12-13T01:54:34.164Z,20.00
2022-12-13T01:55:28.278Z,19.98
2022-12-13T01:56:27.234Z,19.98
2022-12-13T01:57:27.211Z,19.98
2022-12-13T01:58:27.200Z,19.97
2022-12-13T01:59:27.195Z,19.98
2022-12-13T02:00:27.165Z,19.97
2022-12-13T02:01:27.225Z,19.97
2022-12-13T02:02:27.103Z,19.97
2022-12-13T02:03:27.124Z,19.97
2022-12-13T02:04:27.067Z,19.96
2022-12-13T02:05:27.158Z,19.96
2022-12-13T02:06:27.080Z,19.96
2022-12-13T02:07:27.073Z,19.96
2022-12-13T02:08:27.033Z,19.95
2022-12-13T02:09:27.042Z,19.95
2022-12-13T02:10:27.003Z,19.94
2022-12-13T02:11:27.012Z,19.94
2022-12-13T02:12:29.738Z,19.93
2022-12-13T02:13:26.999Z,19.94
2022-12-13T02:14:26.953Z,19.93
2022-12-13T02:15:26.961Z,19.92
2022-12-13T02:16:27.010Z,19.92
2022-12-13T02:17:26.926Z,19.92
2022-12-13T02:18:26.916Z,19.93
2022-12-13T02:19:26.890Z,19.92
2022-12-13T02:20:26.876Z,19.91
2022-12-13T02:21:26.912Z,19.91
2022-12-13T02:22:26.858Z,19.90
2022-12-13T02:23:26.831Z,19.90
2022-12-13T02:24:26.802Z,19.90
2022-12-13T02:25:28.399Z,19.89
2022-12-13T02:26:27.021Z,19.90
2022-12-13T02:27:30.608Z,19.88
2022-12-13T02:28:31.433Z,19.88
2022-12-13T02:29:30.391Z,19.88
2022-12-13T02:30:26.939Z,19.88
2022-12-13T02:31:26.975Z,19.87
2022-12-13T02:32:26.918Z,19.87
2022-12-13T02:33:26.973Z,19.88
2022-12-13T02:34:26.889Z,19.87
2022-12-13T02:35:26.915Z,19.86
2022-12-13T02:36:26.895Z,19.86
2022-12-13T02:37:26.881Z,19.86
2022-12-13T02:38:26.963Z,19.85
2022-12-13T02:39:30.109Z,19.85
2022-12-13T02:40:26.822Z,19.85
2022-12-13T02:41:26.817Z,19.84
2022-12-13T02:42:26.769Z,19.83
2022-12-13T02:43:26.799Z,19.83
2022-12-13T02:44:27.801Z,19.81
2022-12-13T02:45:27.170Z,19.82
2022-12-13T02:46:26.772Z,19.81
2022-12-13T02:47:26.721Z,19.81
2022-12-13T02:48:26.724Z,19.80
2022-12-13T02:49:26.675Z,19.80
2022-12-13T02:50:26.697Z,19.80
2022-12-13T02:51:26.637Z,19.80
2022-12-13T02:52:26.658Z,19.80
2022-12-13T02:53:26.615Z,19.79
2022-12-13T02:54:26.614Z,19.79
2022-12-13T02:55:28.288Z,19.79
2022-12-13T02:56:26.600Z,19.79
2022-12-13T02:57:26.566Z,19.78
2022-12-13T02:58:26.580Z,19.77
2022-12-13T02:59:26.539Z,19.77
2022-12-13T03:00:26.562Z,19.77
2022-12-13T03:01:28.592Z,19.77
2022-12-13T03:02:30.819Z,19.77
2022-12-13T03:03:27.573Z,19.77
2022-12-13T03:04:26.835Z,19.76
2022-12-13T03:05:26.467Z,19.76
2022-12-13T03:06:26.439Z,19.75
2022-12-13T03:07:27.463Z,19.75
2022-12-13T03:08:26.515Z,19.76
2022-12-13T03:09:26.431Z,19.75
2022-12-13T03:10:26.421Z,19.75
2022-12-13T03:11:26.396Z,19.75
2022-12-13T03:12:26.373Z,19.74
2022-12-13T03:13:26.392Z,19.73
2022-12-13T03:14:29.397Z,19.73
2022-12-13T03:15:27.330Z,19.73
2022-12-13T03:16:26.340Z,19.72
2022-12-13T03:17:26.332Z,19.72
2022-12-13T03:18:26.310Z,19.72
2022-12-13T03:19:26.278Z,19.71
2022-12-13T03:20:26.269Z,19.71
2022-12-13T03:21:26.265Z,19.70
2022-12-13T03:22:26.250Z,19.71
2022-12-13T03:23:26.242Z,19.71
2022-12-13T03:24:26.200Z,19.70
2022-12-13T03:25:32.047Z,19.69
2022-12-13T03:26:27.218Z,19.69
2022-12-13T03:27:26.148Z,19.68
2022-12-13T03:28:26.189Z,19.68
2022-12-13T03:29:26.156Z,19.68
2022-12-13T03:30:26.147Z,19.68
2022-12-13T03:31:26.137Z,19.68
2022-12-13T03:32:26.137Z,19.67
2022-12-13T03:33:26.096Z,19.68
2022-12-13T03:34:26.120Z,19.66
2022-12-13T03:35:34.272Z,19.66
2022-12-13T03:36:27.054Z,19.66
2022-12-13T03:37:26.070Z,19.66
2022-12-13T03:38:26.046Z,19.65
2022-12-13T03:39:26.074Z,19.65
2022-12-13T03:40:26.006Z,19.65
2022-12-13T03:41:26.022Z,19.65
2022-12-13T03:42:25.965Z,19.65
2022-12-13T03:43:26.005Z,19.64
2022-12-13T03:44:31.456Z,19.65
2022-12-13T03:45:26.942Z,19.63
2022-12-13T03:46:25.980Z,19.63
2022-12-13T03:47:25.935Z,19.64
2022-12-13T03:48:25.926Z,19.62
2022-12-13T03:49:25.925Z,19.63
2022-12-13T03:50:27.473Z,19.63
2022-12-13T03:51:25.906Z,19.63
2022-12-13T03:52:25.881Z,19.62
2022-12-13T03:53:33.201Z,19.62
2022-12-13T03:54:26.848Z,19.61
2022-12-13T03:55:25.809Z,19.61
2022-12-13T03:56:25.824Z,19.61
2022-12-13T03:57:25.768Z,19.61
2022-12-13T03:58:25.798Z,19.61
2022-12-13T03:59:26.804Z,19.60
2022-12-13T04:00:25.754Z,19.59
2022-12-13T04:01:25.801Z,19.59
2022-12-13T04:02:30.829Z,19.59
2022-12-13T04:03:26.780Z,19.58
2022-12-13T04:04:25.707Z,19.58
2022-12-13T04:05:25.718Z,19.58
2022-12-13T04:06:29.856Z,19.58
2022-12-13T04:07:26.704Z,19.58
2022-12-13T04:08:26.706Z,19.57
2022-12-13T04:09:25.639Z,19.57
2022-12-13T04:10:26.878Z,19.57
2022-12-13T04:11:25.613Z,19.57
2022-12-13T04:12:25.591Z,19.56
2022-12-13T04:13:25.598Z,19.56
2022-12-13T04:14:25.572Z,19.56
2022-12-13T04:15:25.581Z,19.56
2022-12-13T04:16:25.600Z,19.55
2022-12-13T04:17:25.567Z,19.55
2022-12-13T04:18:25.518Z,19.54
2022-12-13T04:19:25.508Z,19.54
2022-12-13T04:20:25.479Z,19.55
2022-12-13T04:21:25.521Z,19.54
2022-12-13T04:22:25.491Z,19.54
2022-12-13T04:23:25.466Z,19.54
2022-12-13T04:24:31.250Z,19.53
2022-12-13T04:25:26.444Z,19.53
2022-12-13T04:26:25.443Z,19.52
2022-12-13T04:27:25.432Z,19.52
2022-12-13T04:28:25.380Z,19.52
2022-12-13T04:29:25.430Z,19.52
2022-12-13T04:30:26.404Z,19.51
2022-12-13T04:31:25.364Z,19.51
2022-12-13T04:32:26.051Z,19.51
2022-12-13T04:33:25.293Z,19.51
2022-12-13T04:34:26.463Z,19.51
2022-12-13T04:35:25.277Z,19.51
2022-12-13T04:36:32.077Z,19.50
2022-12-13T04:37:26.269Z,19.50
2022-12-13T04:38:25.247Z,19.50
2022-12-13T04:39:25.252Z,19.50
2022-12-13T04:40:26.257Z,19.50
2022-12-13T04:41:25.228Z,19.50
2022-12-13T04:42:26.244Z,19.49
2022-12-13T04:43:25.182Z,19.48
2022-12-13T04:44:28.258Z,19.48
2022-12-13T04:45:25.189Z,19.48
2022-12-13T04:46:25.151Z,19.48
2022-12-13T04:47:25.135Z,19.48
2022-12-13T04:48:31.231Z,19.47
2022-12-13T04:49:26.128Z,19.47
2022-12-13T04:50:25.094Z,19.46
2022-12-13T04:51:25.099Z,19.47
2022-12-13T04:52:25.088Z,19.47
2022-12-13T04:53:25.080Z,19.47
2022-12-13T04:54:25.050Z,19.46
2022-12-13T04:55:25.069Z,19.47
2022-12-13T04:56:25.050Z,19.45
2022-12-13T04:57:25.017Z,19.45
2022-12-13T04:58:25.028Z,19.45
2022-12-13T04:59:25.021Z,19.45
2022-12-13T05:00:25.020Z,19.45
2022-12-13T05:01:25.079Z,19.45
2022-12-13T05:02:25.053Z,19.44
2022-12-13T05:03:24.992Z,19.44
2022-12-13T05:04:30.586Z,19.44
2022-12-13T05:05:25.966Z,19.43
2022-12-13T05:06:26.940Z,19.43
2022-12-13T05:07:24.970Z,19.43
2022-12-13T05:08:24.984Z,19.43
2022-12-13T05:09:24.944Z,19.43
2022-12-13T05:10:33.992Z,19.42
2022-12-13T05:11:25.919Z,19.41
2022-12-13T05:12:24.897Z,19.41
2022-12-13T05:13:24.895Z,19.41
2022-12-13T05:14:24.891Z,19.41
2022-12-13T05:15:24.900Z,19.40
2022-12-13T05:16:24.986Z,19.40
2022-12-13T05:17:24.875Z,19.40
2022-12-13T05:18:24.850Z,19.40
2022-12-13T05:19:31.371Z,19.41
2022-12-13T05:20:25.865Z,19.39
2022-12-13T05:21:24.836Z,19.40
2022-12-13T05:22:24.827Z,19.40
2022-12-13T05:23:24.805Z,19.39
2022-12-13T05:24:24.828Z,19.39
2022-12-13T05:25:24.762Z,19.39
2022-12-13T05:26:24.794Z,19.38
2022-12-13T05:27:26.961Z,19.37
2022-12-13T05:28:27.738Z,19.38
2022-12-13T05:29:24.720Z,19.38
2022-12-13T05:30:24.720Z,19.38
2022-12-13T05:31:24.713Z,19.38
2022-12-13T05:32:24.715Z,19.37
2022-12-13T05:33:24.703Z,19.37
2022-12-13T05:34:24.692Z,19.36
2022-12-13T05:35:24.807Z,19.37
2022-12-13T05:36:24.677Z,19.36
2022-12-13T05:37:24.659Z,19.36
2022-12-13T05:38:24.661Z,19.36
2022-12-13T05:39:27.938Z,19.36
2022-12-13T05:40:24.659Z,19.35
2022-12-13T05:41:24.621Z,19.35
2022-12-13T05:42:24.604Z,19.35
2022-12-13T05:43:24.593Z,19.35
2022-12-13T05:44:25.600Z,19.34
2022-12-13T05:45:24.581Z,19.34
2022-12-13T05:46:24.594Z,19.34
2022-12-13T05:47:24.545Z,19.34
2022-12-13T05:48:25.054Z,19.34
2022-12-13T05:49:24.532Z,19.33
2022-12-13T05:50:24.540Z,19.34
2022-12-13T05:51:24.499Z,19.34
2022-12-13T05:52:30.345Z,19.35
2022-12-13T05:53:30.796Z,19.37
2022-12-13T05:54:25.495Z,19.36
2022-12-13T05:55:24.490Z,19.37
2022-12-13T05:56:24.446Z,19.37
2022-12-13T05:57:24.500Z,19.37
2022-12-13T05:58:24.440Z,19.36
2022-12-13T05:59:24.469Z,19.35
2022-12-13T06:00:29.048Z,19.36
2022-12-13T06:01:25.440Z,19.39
2022-12-13T06:02:24.502Z,19.43
2022-12-13T06:03:24.530Z,19.44
2022-12-13T06:04:24.378Z,19.47
2022-12-13T06:05:24.424Z,19.48
2022-12-13T06:06:24.417Z,19.50
2022-12-13T06:07:24.381Z,19.51
2022-12-13T06:08:25.589Z,19.52
2022-12-13T06:09:24.387Z,19.53
2022-12-13T06:10:24.345Z,19.55
2022-12-13T06:11:32.184Z,19.57
2022-12-13T06:12:31.800Z,19.59
2022-12-13T06:13:31.834Z,19.59
2022-12-13T06:14:25.303Z,19.61
2022-12-13T06:15:24.540Z,19.63
2022-12-13T06:16:24.527Z,19.65
2022-12-13T06:17:24.267Z,19.69
2022-12-13T06:18:24.269Z,19.70
2022-12-13T06:19:24.243Z,19.74
2022-12-13T06:20:24.947Z,19.75
2022-12-13T06:21:24.186Z,19.78
2022-12-13T06:22:24.179Z,19.81
2022-12-13T06:23:24.168Z,19.82
2022-12-13T06:24:24.193Z,19.85
2022-12-13T06:25:30.460Z,19.88
2022-12-13T06:26:25.150Z,19.89
2022-12-13T06:27:24.112Z,19.92
2022-12-13T06:28:24.128Z,19.96
2022-12-13T06:29:25.829Z,20.00
2022-12-13T06:30:24.111Z,20.04
2022-12-13T06:31:24.092Z,20.10
2022-12-13T06:32:24.108Z,20.13
2022-12-13T06:33:24.038Z,20.18
2022-12-13T06:34:24.036Z,20.24
2022-12-13T06:35:28.678Z,20.25
2022-12-13T06:36:25.025Z,20.28
2022-12-13T06:37:23.996Z,20.30
2022-12-13T06:38:31.904Z,20.32
2022-12-13T06:39:24.996Z,20.32
2022-12-13T06:40:24.921Z,20.33
2022-12-13T06:41:28.964Z,20.33
2022-12-13T06:42:24.913Z,20.36
2022-12-13T06:43:24.023Z,20.39
2022-12-13T06:44:30.902Z,20.40
2022-12-13T06:45:23.894Z,20.40
2022-12-13T06:46:23.970Z,20.41
2022-12-13T06:47:31.263Z,20.42
2022-12-13T06:48:24.873Z,20.42
2022-12-13T06:49:23.870Z,20.43
2022-12-13T06:50:24.868Z,20.44
2022-12-13T06:51:32.523Z,20.44
2022-12-13T06:52:24.818Z,20.45
2022-12-13T06:53:23.766Z,20.47
2022-12-13T06:54:23.835Z,20.48
2022-12-13T06:55:24.350Z,20.49
2022-12-13T06:56:23.743Z,20.50
2022-12-13T06:57:23.720Z,20.52
2022-12-13T06:58:23.687Z,20.52
2022-12-13T06:59:23.667Z,20.54
2022-12-13T07:00:27.187Z,20.55
2022-12-13T07:01:25.076Z,20.56
2022-12-13T07:02:25.627Z,20.58
2022-12-13T07:03:23.705Z,20.58
2022-12-13T07:04:29.901Z,20.60
2022-12-13T07:05:24.612Z,20.61
2022-12-13T07:06:23.576Z,20.63
2022-12-13T07:07:23.576Z,20.65
2022-12-13T07:08:23.563Z,20.66
2022-12-13T07:09:23.527Z,20.68
2022-12-13T07:10:23.477Z,20.69
2022-12-13T07:11:23.484Z,20.70
2022-12-13T07:12:23.502Z,20.71
2022-12-13T07:13:23.451Z,20.72
2022-12-13T07:14:23.372Z,20.73
2022-12-13T07:15:23.398Z,20.74
2022-12-13T07:16:23.356Z,20.75
2022-12-13T07:17:33.512Z,20.76
2022-12-13T07:18:24.335Z,20.76
2022-12-13T07:19:24.720Z,20.77
2022-12-13T07:20:23.291Z,20.78
2022-12-13T07:21:23.235Z,20.80
2022-12-13T07:22:23.298Z,20.81
2022-12-13T07:23:24.417Z,20.82
2022-12-13T07:24:23.189Z,20.82
2022-12-13T07:25:28.004Z,20.83
2022-12-13T07:26:24.155Z,20.84
2022-12-13T07:27:23.100Z,20.84
2022-12-13T07:28:23.092Z,20.86
2022-12-13T07:29:23.083Z,20.86
2022-12-13T07:30:23.059Z,20.86
2022-12-13T07:31:23.056Z,20.87
2022-12-13T07:32:22.992Z,20.88
2022-12-13T07:33:22.984Z,20.88
2022-12-13T07:34:22.977Z,20.89
2022-12-13T07:35:22.919Z,20.89
2022-12-13T07:36:22.887Z,20.90
2022-12-13T07:37:30.098Z,20.90
2022-12-13T07:38:23.868Z,20.91
2022-12-13T07:39:22.824Z,20.92
2022-12-13T07:40:22.781Z,20.92
2022-12-13T07:41:23.406Z,20.92
2022-12-13T07:42:22.776Z,20.93
2022-12-13T07:43:23.148Z,20.94
2022-12-13T07:44:22.695Z,20.94
2022-12-13T07:45:22.665Z,20.95
2022-12-13T07:46:31.878Z,20.95
2022-12-13T07:47:23.652Z,20.95
2022-12-13T07:48:22.586Z,20.96
2022-12-13T07:49:22.616Z,20.96
2022-12-13T07:50:24.239Z,20.97
2022-12-13T07:51:22.537Z,20.97
2022-12-13T07:52:22.489Z,20.98
2022-12-13T07:53:22.518Z,20.97
2022-12-13T07:54:22.438Z,20.98
2022-12-13T07:55:23.035Z,20.99
2022-12-13T07:56:23.450Z,20.98
2022-12-13T07:57:22.408Z,20.99
2022-12-13T07:58:22.370Z,20.99
2022-12-13T07:59:28.441Z,21.01
2022-12-13T08:00:23.367Z,21.01
2022-12-13T08:01:22.376Z,21.01
2022-12-13T08:02:22.292Z,21.02
2022-12-13T08:03:25.262Z,21.03
2022-12-13T08:04:22.280Z,21.02
2022-12-13T08:05:26.611Z,21.03
2022-12-13T08:06:23.229Z,21.04
2022-12-13T08:07:22.181Z,21.04
2022-12-13T08:08:22.205Z,21.05
2022-12-13T08:09:23.146Z,21.05
2022-12-13T08:10:22.100Z,21.05
2022-12-13T08:11:22.111Z,21.06
2022-12-13T08:12:22.295Z,21.08
2022-12-13T08:13:22.334Z,21.07
2022-12-13T08:14:22.016Z,21.09
2022-12-13T08:15:22.033Z,21.10
2022-12-13T08:16:27.402Z,21.11
2022-12-13T08:17:22.956Z,21.11
2022-12-13T08:18:21.919Z,21.12
2022-12-13T08:19:21.943Z,21.12
2022-12-13T08:20:22.466Z,21.13
2022-12-13T08:21:52.666Z,21.14
2022-12-13T08:22:24.180Z,21.15
2022-12-13T08:23:22.640Z,21.15
2022-12-13T08:24:21.941Z,21.16
2022-12-13T08:25:21.907Z,21.17
2022-12-13T08:26:21.875Z,21.17
2022-12-13T08:27:21.860Z,21.20
2022-12-13T08:28:21.816Z,21.23
2022-12-13T08:29:22.454Z,21.27
2022-12-13T08:30:23.355Z,21.31
2022-12-13T08:31:21.742Z,21.35
2022-12-13T08:32:21.717Z,21.37
2022-12-13T08:33:22.086Z,21.40
2022-12-13T08:34:21.694Z,21.43
2022-12-13T08:35:21.616Z,21.45
2022-12-13T08:36:21.625Z,21.45
2022-12-13T08:37:21.592Z,21.46
2022-12-13T08:38:22.986Z,21.46
2022-12-13T08:39:21.519Z,21.45
2022-12-13T08:40:21.508Z,21.45
2022-12-13T08:41:21.475Z,21.44
2022-12-13T08:42:21.438Z,21.44
2022-12-13T08:43:25.009Z,21.44
2022-12-13T08:44:21.403Z,21.43
2022-12-13T08:45:21.352Z,21.43
2022-12-13T08:46:21.419Z,21.44
2022-12-13T08:47:24.857Z,21.43
2022-12-13T08:48:21.684Z,21.44
2022-12-13T08:49:21.240Z,21.44
2022-12-13T08:50:21.201Z,21.44
2022-12-13T08:51:24.628Z,21.44
2022-12-13T08:52:22.133Z,21.42
2022-12-13T08:53:28.139Z,21.41
2022-12-13T08:54:31.367Z,21.41
2022-12-13T08:55:31.953Z,21.39
2022-12-13T08:56:22.051Z,21.37
2022-12-13T08:57:20.982Z,21.36
2022-12-13T08:58:20.994Z,21.36
2022-12-13T08:59:20.939Z,21.37
2022-12-13T09:00:20.947Z,21.35
2022-12-13T09:01:20.927Z,21.34
2022-12-13T09:02:20.954Z,21.33
2022-12-13T09:03:21.090Z,21.33
2022-12-13T09:04:31.584Z,21.30
2022-12-13T09:05:32.997Z,21.29
2022-12-13T09:06:21.741Z,21.30
2022-12-13T09:07:20.751Z,21.30
2022-12-13T09:08:23.495Z,21.32
2022-12-13T09:09:20.690Z,21.31
2022-12-13T09:10:27.120Z,21.32
2022-12-13T09:11:33.147Z,21.31
2022-12-13T09:12:30.659Z,21.32
2022-12-13T09:13:32.360Z,21.30
2022-12-13T09:14:23.420Z,21.30
2022-12-13T09:15:22.969Z,21.30
2022-12-13T09:16:23.534Z,21.30
2022-12-13T09:17:24.411Z,21.28
2022-12-13T09:18:23.997Z,21.27
2022-12-13T09:19:26.345Z,21.25
2022-12-13T09:20:29.018Z,21.25
2022-12-13T09:21:22.378Z,21.25
2022-12-13T09:22:33.149Z,21.24
2022-12-13T09:23:23.181Z,21.23
2022-12-13T09:24:23.538Z,21.23
2022-12-13T09:25:24.192Z,21.23
2022-12-13T09:26:25.179Z,21.22
2022-12-13T09:27:27.451Z,21.23
2022-12-13T09:28:21.144Z,21.23
2022-12-13T09:29:20.164Z,21.25
2022-12-13T09:30:20.128Z,21.27
2022-12-13T09:31:20.122Z,21.27
2022-12-13T09:32:20.045Z,21.27
2022-12-13T09:33:30.220Z,21.26
2022-12-13T09:34:21.092Z,21.26
2022-12-13T09:35:19.979Z,21.27
2022-12-13T09:36:19.962Z,21.31
2022-12-13T09:37:23.021Z,21.31
2022-12-13T09:38:19.932Z,21.31
2022-12-13T09:39:19.842Z,21.33
2022-12-13T09:40:26.385Z,21.34
2022-12-13T09:41:20.859Z,21.37
2022-12-13T09:42:20.879Z,21.40
2022-12-13T09:43:22.874Z,21.40
2022-12-13T09:44:32.377Z,21.39
2022-12-13T09:45:31.605Z,21.39
2022-12-13T09:46:23.049Z,21.38
2022-12-13T09:47:23.632Z,21.38
2022-12-13T09:48:22.858Z,21.38
2022-12-13T09:49:22.914Z,21.39
2022-12-13T09:50:19.707Z,21.40
2022-12-13T09:51:28.444Z,21.38
2022-12-13T09:52:22.038Z,21.38
2022-12-13T09:53:21.710Z,21.38
2022-12-13T09:54:19.582Z,21.37
2022-12-13T09:55:19.524Z,21.40
2022-12-13T09:56:19.497Z,21.38
2022-12-13T09:57:32.417Z,21.38
2022-12-13T09:58:20.910Z,21.38
2022-12-13T09:59:19.423Z,21.38
2022-12-13T10:00:19.476Z,21.38
2022-12-13T10:01:23.524Z,21.35
2022-12-13T10:02:19.410Z,21.32
2022-12-13T10:03:19.476Z,21.28
2022-12-13T10:04:19.341Z,21.24
2022-12-13T10:05:22.476Z,21.21
2022-12-13T10:06:23.387Z,21.16
2022-12-13T10:07:19.274Z,21.14
2022-12-13T10:08:19.278Z,21.12
2022-12-13T10:09:19.191Z,21.12
2022-12-13T10:10:19.282Z,21.11
2022-12-13T10:11:19.248Z,21.08
2022-12-13T10:12:19.202Z,21.02
2022-12-13T10:13:19.125Z,20.98
2022-12-13T10:14:19.141Z,20.98
2022-12-13T10:15:21.878Z,20.97
2022-12-13T10:16:23.303Z,20.96
2022-12-13T10:17:20.069Z,20.94
2022-12-13T10:18:19.007Z,20.92
2022-12-13T10:19:29.036Z,20.90
2022-12-13T10:20:20.011Z,20.88
2022-12-13T10:21:18.945Z,20.88
2022-12-13T10:22:18.966Z,20.88
2022-12-13T10:23:52.984Z,20.88
2022-12-13T10:24:34.521Z,20.86
2022-12-13T10:25:19.874Z,20.87
2022-12-13T10:26:24.547Z,20.87
2022-12-13T10:27:19.876Z,20.88
2022-12-13T10:28:18.842Z,20.87
2022-12-13T10:29:18.851Z,20.88
2022-12-13T10:30:23.063Z,20.87
2022-12-13T10:31:19.889Z,20.88
2022-12-13T10:32:18.781Z,20.89
2022-12-13T10:33:18.788Z,20.90
2022-12-13T10:34:19.778Z,20.90
2022-12-13T10:35:18.728Z,20.91
2022-12-13T10:36:22.206Z,20.92
2022-12-13T10:37:19.738Z,20.93
2022-12-13T10:38:18.697Z,20.95
2022-12-13T10:39:18.662Z,20.95
2022-12-13T10:40:32.032Z,20.98
2022-12-13T10:41:19.630Z,21.00
2022-12-13T10:42:22.570Z,21.03
2022-12-13T10:43:19.604Z,21.05
2022-12-13T10:44:18.554Z,21.06
2022-12-13T10:45:23.645Z,21.07
2022-12-13T10:46:25.189Z,21.08
2022-12-13T10:47:19.483Z,21.10
2022-12-13T10:48:18.480Z,21.12
2022-12-13T10:49:18.428Z,21.13
2022-12-13T10:50:18.461Z,21.14
2022-12-13T10:51:18.367Z,21.16
2022-12-13T10:52:18.404Z,21.18
2022-12-13T10:53:19.352Z,21.19
2022-12-13T10:54:18.334Z,21.19
2022-12-13T10:55:23.480Z,21.22
2022-12-13T10:56:22.905Z,21.24
2022-12-13T10:57:18.305Z,21.23
2022-12-13T10:58:18.338Z,21.26
2022-12-13T10:59:18.232Z,21.28
2022-12-13T11:00:18.266Z,21.30
2022-12-13T11:01:18.275Z,21.32
2022-12-13T11:02:18.258Z,21.34
2022-12-13T11:03:18.160Z,21.37
2022-12-13T11:04:19.356Z,21.38
2022-12-13T11:05:23.197Z,21.43
2022-12-13T11:06:19.129Z,21.45
2022-12-13T11:07:18.069Z,21.46
2022-12-13T11:08:18.098Z,21.48
2022-12-13T11:09:22.973Z,21.49
2022-12-13T11:10:23.646Z,21.49
2022-12-13T11:11:18.972Z,21.50
2022-12-13T11:12:18.016Z,21.52
2022-12-13T11:13:17.934Z,21.51
2022-12-13T11:14:17.952Z,21.52
2022-12-13T11:15:18.898Z,21.52
2022-12-13T11:16:17.912Z,21.52
2022-12-13T11:17:17.865Z,21.52
2022-12-13T11:18:17.829Z,21.56
2022-12-13T11:19:17.907Z,21.57
2022-12-13T11:20:17.809Z,21.57
2022-12-13T11:21:17.787Z,21.59
2022-12-13T11:22:17.740Z,21.61
2022-12-13T11:23:17.718Z,21.61
2022-12-13T11:24:17.668Z,21.62
2022-12-13T11:25:18.676Z,21.61
2022-12-13T11:26:24.048Z,21.62
2022-12-13T11:27:18.617Z,21.61
2022-12-13T11:28:26.571Z,21.61
2022-12-13T11:29:18.530Z,21.60
2022-12-13T11:30:17.471Z,21.60
2022-12-13T11:31:17.625Z,21.59
2022-12-13T11:32:22.829Z,21.60
2022-12-13T11:33:18.437Z,21.58
2022-12-13T11:34:17.391Z,21.60
2022-12-13T11:35:17.388Z,21.60
2022-12-13T11:36:17.419Z,21.60
2022-12-13T11:37:17.311Z,21.60
2022-12-13T11:38:17.288Z,21.61
2022-12-13T11:39:17.269Z,21.61
2022-12-13T11:40:17.200Z,21.62
2022-12-13T11:41:31.197Z,21.63
2022-12-13T11:42:18.251Z,21.63
2022-12-13T11:43:17.142Z,21.62
2022-12-13T11:44:17.146Z,21.62
2022-12-13T11:45:22.566Z,21.63
2022-12-13T11:46:18.145Z,21.56
2022-12-13T11:47:17.043Z,21.44
2022-12-13T11:48:17.025Z,21.31
2022-12-13T11:49:17.079Z,21.17
2022-12-13T11:50:32.702Z,21.03
2022-12-13T11:51:17.987Z,20.94
2022-12-13T11:52:16.985Z,20.89
2022-12-13T11:53:17.101Z,20.79
2022-12-13T11:54:23.531Z,20.73
2022-12-13T11:55:17.917Z,20.76
2022-12-13T11:56:16.893Z,20.78
2022-12-13T11:57:17.005Z,20.82
2022-12-13T11:58:32.554Z,20.85
2022-12-13T11:59:24.316Z,20.88
2022-12-13T12:00:17.900Z,20.90
2022-12-13T12:01:17.823Z,20.93
2022-12-13T12:02:17.551Z,20.96
2022-12-13T12:03:16.906Z,20.99
2022-12-13T12:04:16.742Z,21.02
2022-12-13T12:05:16.785Z,21.05
2022-12-13T12:06:16.716Z,21.06
2022-12-13T12:07:33.566Z,21.08
2022-12-13T12:08:33.582Z,21.09
2022-12-13T12:09:17.621Z,21.10
2022-12-13T12:10:16.640Z,21.12
2022-12-13T12:11:16.610Z,21.15
2022-12-13T12:12:22.070Z,21.18
2022-12-13T12:13:17.563Z,21.20
2022-12-13T12:14:16.518Z,21.22
2022-12-13T12:15:16.772Z,21.23
2022-12-13T12:16:16.590Z,21.24
2022-12-13T12:17:16.475Z,21.26
2022-12-13T12:18:16.445Z,21.27
2022-12-13T12:19:16.526Z,21.28
2022-12-13T12:20:24.218Z,21.30
2022-12-13T12:21:17.383Z,21.32
2022-12-13T12:22:16.416Z,21.32
2022-12-13T12:23:16.345Z,21.34
2022-12-13T12:24:16.294Z,21.34
2022-12-13T12:25:16.273Z,21.35
2022-12-13T12:26:16.212Z,21.36
2022-12-13T12:27:22.315Z,21.37
2022-12-13T12:28:17.216Z,21.37
2022-12-13T12:29:16.127Z,21.38
2022-12-13T12:30:23.174Z,21.40
2022-12-13T12:31:17.132Z,21.41
2022-12-13T12:32:16.071Z,21.43
2022-12-13T12:33:16.030Z,21.44
2022-12-13T12:34:16.011Z,21.46
2022-12-13T12:35:15.989Z,21.47
2022-12-13T12:36:15.949Z,21.47
2022-12-13T12:37:15.929Z,21.48
2022-12-13T12:38:15.895Z,21.49
2022-12-13T12:39:15.912Z,21.51
2022-12-13T12:40:15.841Z,21.52
2022-12-13T12:41:17.003Z,21.51
2022-12-13T12:42:15.813Z,21.50
2022-12-13T12:43:27.101Z,21.50
2022-12-13T12:44:16.761Z,21.50
2022-12-13T12:45:54.708Z,21.53
2022-12-13T12:46:16.731Z,21.51
2022-12-13T12:49:16.675Z,21.22
2022-12-13T12:50:15.659Z,20.86
2022-12-13T12:51:15.632Z,20.31
2022-12-13T12:52:15.670Z,19.74
2022-12-13T12:53:15.616Z,18.89
2022-12-13T12:54:15.690Z,18.26
2022-12-13T12:55:15.715Z,18.20